createdAt,value
2019-02-04T00:03:19.143Z,95.50
2019-02-04T00:08:20.429Z,95.50
2019-02-04T00:13:21.765Z,95.50
2019-02-04T00:18:23.074Z,95.60
2019-02-04T00:23:24.401Z,95.50
2019-02-04T00:28:25.677Z,95.70
2019-02-04T00:33:26.996Z,95.60
2019-02-04T00:38:28.838Z,95.50
2019-02-04T00:43:30.144Z,95.70
2019-02-04T00:48:31.489Z,95.80
2019-02-04T00:53:32.886Z,95.60
2019-02-04T00:58:34.158Z,95.50
2019-02-04T01:03:35.610Z,95.40
2019-02-04T01:08:36.899Z,95.40
2019-02-04T01:13:38.223Z,95.30
2019-02-04T01:18:39.633Z,95.30
2019-02-04T01:23:40.991Z,95.40
2019-02-04T01:28:42.276Z,95.30
2019-02-04T01:33:43.701Z,95.40
2019-02-04T01:38:44.989Z,95.40
2019-02-04T01:43:46.525Z,95.40
2019-02-04T01:48:47.809Z,95.20
2019-02-04T01:53:49.362Z,95.20
2019-02-04T01:58:50.694Z,95.30
2019-02-04T02:03:52.083Z,95.40
2019-02-04T02:08:54.159Z,95.40
2019-02-04T02:13:55.469Z,95.40
2019-02-04T02:18:56.816Z,95.30
2019-02-04T02:23:58.109Z,95.30
2019-02-04T02:28:59.468Z,95.40
2019-02-04T02:34:01.204Z,95.50
2019-02-04T02:39:06.254Z,95.50
2019-02-04T02:44:07.726Z,95.40
2019-02-04T02:49:09.207Z,95.40
2019-02-04T02:54:10.594Z,95.50
2019-02-04T02:59:12.120Z,95.70
2019-02-04T03:04:13.448Z,95.70
2019-02-04T03:09:14.899Z,95.80
2019-02-04T03:14:16.473Z,95.80
2019-02-04T03:19:17.833Z,95.70
2019-02-04T03:24:19.222Z,95.60
2019-02-04T03:29:20.511Z,95.60
2019-02-04T03:34:21.976Z,95.70
2019-02-04T03:39:23.721Z,95.70
2019-02-04T03:44:25.001Z,95.70
2019-02-04T03:49:26.367Z,95.60
2019-02-04T03:54:27.866Z,95.70
2019-02-04T03:59:29.415Z,95.80
2019-02-04T04:04:31.244Z,95.90
2019-02-04T04:09:32.582Z,95.80
2019-02-04T04:14:34.088Z,96.00
2019-02-04T04:19:35.697Z,96.00
2019-02-04T04:24:37.091Z,96.10
2019-02-04T04:29:38.503Z,96.10
2019-02-04T04:34:39.843Z,96.10
2019-02-04T04:39:41.167Z,96.10
2019-02-04T04:44:42.603Z,96.20
2019-02-04T04:49:43.907Z,96.20
2019-02-04T04:54:45.250Z,96.10
2019-02-04T04:59:46.559Z,96.20
2019-02-04T05:04:48.013Z,96.10
2019-02-04T05:09:49.714Z,96.10
2019-02-04T05:14:51.017Z,96.10
2019-02-04T05:19:52.481Z,96.10
2019-02-04T05:24:53.991Z,96.20
2019-02-04T05:29:55.438Z,96.20
2019-02-04T05:34:57.699Z,96.30
2019-02-04T05:39:59.097Z,96.20
2019-02-04T05:45:00.444Z,96.30
2019-02-04T05:50:01.880Z,96.30
2019-02-04T05:55:05.062Z,96.20
2019-02-04T06:00:14.839Z,96.20
2019-02-04T06:05:16.247Z,96.10
2019-02-04T06:10:17.659Z,96.20
2019-02-04T06:15:18.981Z,96.20
2019-02-04T06:20:22.629Z,96.10
2019-02-04T06:25:24.766Z,96.10
2019-02-04T06:30:26.141Z,96.10
2019-02-04T06:35:27.440Z,96.10
2019-02-04T06:40:28.869Z,96.00
2019-02-04T06:45:30.169Z,96.10
2019-02-04T06:50:31.501Z,96.00
2019-02-04T06:55:33.043Z,96.00
2019-02-04T07:00:34.585Z,95.90
2019-02-04T07:05:43.399Z,96.00
2019-02-04T07:10:41.036Z,95.90
2019-02-04T07:15:42.397Z,95.90
2019-02-04T07:20:44.416Z,95.70
2019-02-04T07:25:45.857Z,95.70
2019-02-04T07:30:47.881Z,95.70
2019-02-04T07:35:49.209Z,95.70
2019-02-04T07:40:50.556Z,95.60
2019-02-04T07:45:52.062Z,95.60
2019-02-04T07:50:53.461Z,95.50
2019-02-04T07:55:54.879Z,95.50
2019-02-04T08:00:56.432Z,95.50
2019-02-04T08:05:57.713Z,95.50
2019-02-04T08:10:59.577Z,95.40
2019-02-04T08:16:01.033Z,95.70
2019-02-04T08:21:02.467Z,95.50
2019-02-04T08:26:03.930Z,95.50
2019-02-04T08:31:05.386Z,95.20
2019-02-04T08:36:06.980Z,95.20
2019-02-04T08:41:08.508Z,95.10
2019-02-04T08:46:09.831Z,95.10
2019-02-04T08:51:11.798Z,95.00
2019-02-04T08:56:13.087Z,94.70
2019-02-04T09:01:14.436Z,94.90
2019-02-04T09:06:15.725Z,94.90
2019-02-04T09:11:17.028Z,94.80
2019-02-04T09:16:18.340Z,94.80
2019-02-04T09:21:19.653Z,94.90
2019-02-04T09:26:20.988Z,94.60
2019-02-04T09:31:22.324Z,94.50
2019-02-04T09:36:23.642Z,94.40
2019-02-04T09:41:24.963Z,93.90
2019-02-04T09:46:26.663Z,93.80
2019-02-04T09:51:27.997Z,93.80
2019-02-04T09:56:29.324Z,93.60
2019-02-04T10:01:30.794Z,93.60
2019-02-04T10:06:32.136Z,93.10
2019-02-04T10:11:33.419Z,93.20
2019-02-04T10:16:34.971Z,93.10
2019-02-04T10:21:55.300Z,93.00
2019-02-04T10:26:56.959Z,92.70
2019-02-04T10:31:58.492Z,92.60
2019-02-04T10:36:59.968Z,92.30
2019-02-04T10:42:01.417Z,92.20
2019-02-04T10:47:02.813Z,92.00
2019-02-04T10:52:04.364Z,91.90
2019-02-04T10:57:05.922Z,91.60
2019-02-04T11:02:07.921Z,91.20
2019-02-04T11:07:09.638Z,91.00
2019-02-04T11:12:11.040Z,90.90
2019-02-04T11:17:12.440Z,90.50
2019-02-04T11:22:13.897Z,90.90
2019-02-04T11:27:15.315Z,90.40
2019-02-04T11:32:16.934Z,90.20
2019-02-04T11:37:18.304Z,90.10
2019-02-04T11:42:20.264Z,89.50
2019-02-04T11:47:21.624Z,88.90
2019-02-04T11:52:23.220Z,89.10
2019-02-04T11:57:24.549Z,88.20
2019-02-04T12:02:34.366Z,88.60
2019-02-04T12:07:29.496Z,87.60
2019-02-04T12:12:30.794Z,87.70
2019-02-04T12:17:35.335Z,88.10
2019-02-04T12:22:36.826Z,87.60
2019-02-04T12:27:38.298Z,88.00
2019-02-04T12:32:39.674Z,88.00
2019-02-04T12:37:40.966Z,87.90
2019-02-04T12:42:42.452Z,87.70
2019-02-04T12:47:44.349Z,87.50
2019-02-04T12:52:45.650Z,87.30
2019-02-04T12:57:47.286Z,87.80
2019-02-04T13:02:48.903Z,87.50
2019-02-04T13:07:50.544Z,87.50
2019-02-04T13:12:52.383Z,87.20
2019-02-04T13:17:53.714Z,87.00
2019-02-04T13:22:55.113Z,86.60
2019-02-04T13:27:56.659Z,86.70
2019-02-04T13:32:58.055Z,87.30
2019-02-04T13:37:59.615Z,87.70
2019-02-04T13:43:00.960Z,87.80
2019-02-04T13:48:04.479Z,88.00
2019-02-04T13:53:06.433Z,88.00
2019-02-04T13:58:07.761Z,87.50
2019-02-04T14:03:27.732Z,87.60
2019-02-04T14:08:29.122Z,87.70
2019-02-04T14:13:30.552Z,88.30
2019-02-04T14:18:31.897Z,88.80
2019-02-04T14:23:33.323Z,89.50
2019-02-04T14:28:36.096Z,90.00
2019-02-04T14:33:37.621Z,90.40
2019-02-04T14:38:39.223Z,90.60
2019-02-04T14:43:40.867Z,90.90
2019-02-04T14:49:36.840Z,91.10
2019-02-04T14:54:55.676Z,91.30
2019-02-04T15:00:02.728Z,91.70
2019-02-04T15:05:16.133Z,91.50
2019-02-04T15:10:31.620Z,91.60
2019-02-04T15:15:57.143Z,91.80
2019-02-04T15:21:30.586Z,91.80
2019-02-04T15:27:10.522Z,91.90
2019-02-04T15:32:29.728Z,92.00
2019-02-04T15:37:57.600Z,92.10
2019-02-04T15:43:13.618Z,92.20
2019-02-04T15:48:18.683Z,92.40
2019-02-04T15:53:20.031Z,92.50
2019-02-04T15:58:21.465Z,92.70
2019-02-04T16:03:22.801Z,93.10
2019-02-04T16:08:24.150Z,92.90
2019-02-04T16:13:25.574Z,93.00
2019-02-04T16:18:27.948Z,93.10
2019-02-04T16:23:29.285Z,93.20
2019-02-04T16:28:30.712Z,93.30
2019-02-04T16:33:32.430Z,93.30
2019-02-04T16:38:33.819Z,93.50
2019-02-04T16:43:35.294Z,93.50
2019-02-04T16:48:36.685Z,93.50
2019-02-04T16:53:41.226Z,93.70
2019-02-04T16:58:42.561Z,94.00
2019-02-04T17:03:43.889Z,93.90
2019-02-04T17:08:45.650Z,94.00
2019-02-04T17:13:47.099Z,94.00
2019-02-04T17:18:48.783Z,94.00
2019-02-04T17:23:50.268Z,94.30
2019-02-04T17:28:51.609Z,94.40
2019-02-04T17:33:53.578Z,94.30
2019-02-04T17:38:55.062Z,94.40
2019-02-04T17:43:56.478Z,94.50
2019-02-04T17:48:58.754Z,94.50
2019-02-04T17:54:05.174Z,94.60
2019-02-04T17:59:07.225Z,94.70
2019-02-04T18:04:08.620Z,94.80
2019-02-04T18:09:10.054Z,95.00
2019-02-04T18:14:12.295Z,95.00
2019-02-04T18:19:13.694Z,95.20
2019-02-04T18:24:15.099Z,95.30
2019-02-04T18:29:16.559Z,95.10
2019-02-04T18:34:21.001Z,95.20
2019-02-04T18:39:22.736Z,95.20
2019-02-04T18:44:24.416Z,95.30
2019-02-04T18:49:25.946Z,95.30
2019-02-04T18:54:27.272Z,95.50
2019-02-04T18:59:28.670Z,95.40
2019-02-04T19:04:31.171Z,95.40
2019-02-04T19:09:32.572Z,95.50
2019-02-04T19:14:34.274Z,95.50
2019-02-04T19:24:55.773Z,95.60
2019-02-04T19:30:00.044Z,95.70
2019-02-04T19:35:01.707Z,95.60
2019-02-04T19:40:12.466Z,95.70
2019-02-04T19:45:20.793Z,95.80
2019-02-04T19:50:33.631Z,95.80
2019-02-04T19:55:38.319Z,95.80
2019-02-04T20:00:39.744Z,95.90
2019-02-04T20:05:41.959Z,95.80
2019-02-04T20:10:43.863Z,95.80
2019-02-04T20:15:45.833Z,95.80
2019-02-04T20:21:05.805Z,95.90
2019-02-04T20:26:08.467Z,96.00
2019-02-04T20:31:09.780Z,96.00
2019-02-04T20:36:11.347Z,96.00
2019-02-04T20:41:13.874Z,96.00
2019-02-04T20:46:15.342Z,96.10
2019-02-04T20:51:19.201Z,96.10
2019-02-04T20:56:20.750Z,96.10
2019-02-04T21:01:22.112Z,96.10
2019-02-04T21:06:24.272Z,96.20
2019-02-04T21:11:26.051Z,96.20
2019-02-04T21:16:27.360Z,96.20
2019-02-04T21:21:28.801Z,96.30
2019-02-04T21:26:30.225Z,96.20
2019-02-04T21:31:50.713Z,96.10
2019-02-04T21:36:52.059Z,96.20
2019-02-04T21:41:53.819Z,96.10
2019-02-04T21:46:55.523Z,96.20
2019-02-04T21:51:57.042Z,96.20
2019-02-04T21:57:21.130Z,96.10
2019-02-04T22:02:22.683Z,96.10
2019-02-04T22:07:24.153Z,96.20
2019-02-04T22:12:25.727Z,96.10
2019-02-04T22:17:28.188Z,96.20
2019-02-04T22:22:29.477Z,96.30
2019-02-04T22:27:30.923Z,96.30
2019-02-04T22:32:32.246Z,96.30
2019-02-04T22:37:52.247Z,96.30
2019-02-04T22:42:56.666Z,96.30
2019-02-04T22:47:58.718Z,96.30
2019-02-04T22:53:02.265Z,96.30
2019-02-04T22:58:04.098Z,96.30
2019-02-04T23:03:06.608Z,96.30
2019-02-04T23:08:08.360Z,96.40
2019-02-04T23:13:30.306Z,96.40
2019-02-04T23:18:33.666Z,96.30
2019-02-04T23:23:37.305Z,96.40
2019-02-04T23:28:40.715Z,96.40
2019-02-04T23:33:42.308Z,96.40
2019-02-04T23:38:43.631Z,96.40
2019-02-04T23:43:44.911Z,96.40
2019-02-04T23:48:47.707Z,96.50
2019-02-04T23:53:49.077Z,96.40
2019-02-04T23:58:52.609Z,96.40
